sensor_id;sensor_type;location;lat;lon;timestamp;pressure;altitude;pressure_sealevel;temperature;humidity
69318;BME280;56457;52.190;4.440;2023-04-22T00:00:29;101009.38;;;8.77;100.00
69318;BME280;56457;52.190;4.440;2023-04-22T00:01:30;101005.88;;;8.79;100.00
69318;BME280;56457;52.190;4.440;2023-04-22T00:02:30;101007.63;;;8.80;100.00
69318;BME280;56457;52.190;4.440;2023-04-22T00:03:31;101010.25;;;8.76;100.00
69318;BME280;56457;52.190;4.440;2023-04-22T00:04:32;100999.78;;;8.73;100.00
69318;BME280;56457;52.190;4.440;2023-04-22T00:05:33;100998.03;;;8.72;100.00
69318;BME280;56457;52.190;4.440;2023-04-22T00:06:34;101004.13;;;8.72;100.00
69318;BME280;56457;52.190;4.440;2023-04-22T00:07:34;101002.41;;;8.70;100.00
69318;BME280;56457;52.190;4.440;2023-04-22T00:08:34;101004.97;;;8.68;100.00
69318;BME280;56457;52.190;4.440;2023-04-22T00:09:35;101006.72;;;8.68;100.00
69318;BME280;56457;52.190;4.440;2023-04-22T00:10:35;100993.66;;;8.71;100.00
69318;BME280;56457;52.190;4.440;2023-04-22T00:11:35;101010.22;;;8.73;100.00
69318;BME280;56457;52.190;4.440;2023-04-22T00:12:36;101010.22;;;8.73;100.00
69318;BME280;56457;52.190;4.440;2023-04-22T00:13:36;101015.47;;;8.74;100.00
69318;BME280;56457;52.190;4.440;2023-04-22T00:14:36;101011.09;;;8.72;100.00
69318;BME280;56457;52.190;4.440;2023-04-22T00:15:37;101010.22;;;8.73;100.00
69318;BME280;56457;52.190;4.440;2023-04-22T00:16:38;101012.00;;;8.77;100.00
69318;BME280;56457;52.190;4.440;2023-04-22T00:17:38;101011.13;;;8.81;100.00
69318;BME280;56457;52.190;4.440;2023-04-22T00:18:39;101005.00;;;8.82;100.00
69318;BME280;56457;52.190;4.440;2023-04-22T00:19:40;101008.53;;;8.82;100.00
69318;BME280;56457;52.190;4.440;2023-04-22T00:20:40;101009.34;;;8.75;100.00
69318;BME280;56457;52.190;4.440;2023-04-22T00:21:42;101003.25;;;8.75;100.00
69318;BME280;56457;52.190;4.440;2023-04-22T00:22:43;100996.28;;;8.74;100.00
69318;BME280;56457;52.190;4.440;2023-04-22T00:23:43;101005.84;;;8.69;100.00
69318;BME280;56457;52.190;4.440;2023-04-22T00:24:44;101007.59;;;8.68;100.00
69318;BME280;56457;52.190;4.440;2023-04-22T00:25:44;101004.13;;;8.66;100.00
69318;BME280;56457;52.190;4.440;2023-04-22T00:26:45;100999.75;;;8.63;100.00
69318;BME280;56457;52.190;4.440;2023-04-22T00:27:45;101006.72;;;8.61;100.00
69318;BME280;56457;52.190;4.440;2023-04-22T00:28:45;101009.31;;;8.57;100.00
69318;BME280;56457;52.190;4.440;2023-04-22T00:29:46;101006.72;;;8.58;100.00
69318;BME280;56457;52.190;4.440;2023-04-22T00:30:46;101009.31;;;8.60;100.00
69318;BME280;56457;52.190;4.440;2023-04-22T00:31:46;101005.84;;;8.58;100.00
69318;BME280;56457;52.190;4.440;2023-04-22T00:32:48;101000.59;;;8.55;100.00
69318;BME280;56457;52.190;4.440;2023-04-22T00:33:49;100998.84;;;8.52;100.00
69318;BME280;56457;52.190;4.440;2023-04-22T00:34:49;101004.94;;;8.48;100.00
69318;BME280;56457;52.190;4.440;2023-04-22T00:35:49;101004.94;;;8.45;100.00
69318;BME280;56457;52.190;4.440;2023-04-22T00:36:49;101008.41;;;8.47;100.00
69318;BME280;56457;52.190;4.440;2023-04-22T00:37:50;101012.78;;;8.47;100.00
69318;BME280;56457;52.190;4.440;2023-04-22T00:38:50;101006.66;;;8.48;100.00
69318;BME280;56457;52.190;4.440;2023-04-22T00:39:51;101008.41;;;8.49;100.00
69318;BME280;56457;52.190;4.440;2023-04-22T00:40:51;101006.66;;;8.49;100.00
69318;BME280;56457;52.190;4.440;2023-04-22T00:41:51;101005.81;;;8.46;100.00
69318;BME280;56457;52.190;4.440;2023-04-22T00:42:52;101009.28;;;8.48;100.00
69318;BME280;56457;52.190;4.440;2023-04-22T00:43:53;101012.78;;;8.45;100.00
69318;BME280;56457;52.190;4.440;2023-04-22T00:44:54;101006.66;;;8.40;100.00
69318;BME280;56457;52.190;4.440;2023-04-22T00:45:55;101006.66;;;8.42;100.00
69318;BME280;56457;52.190;4.440;2023-04-22T00:46:55;101003.13;;;8.38;100.00
69318;BME280;56457;52.190;4.440;2023-04-22T00:47:56;101002.28;;;8.38;100.00
69318;BME280;56457;52.190;4.440;2023-04-22T00:48:56;101008.31;;;8.32;100.00
69318;BME280;56457;52.190;4.440;2023-04-22T00:49:57;101010.91;;;8.24;100.00
69318;BME280;56457;52.190;4.440;2023-04-22T00:50:57;101006.50;;;8.17;100.00
69318;BME280;56457;52.190;4.440;2023-04-22T00:51:58;101010.88;;;8.15;100.00
69318;BME280;56457;52.190;4.440;2023-04-22T00:52:58;101009.13;;;8.14;100.00
69318;BME280;56457;52.190;4.440;2023-04-22T00:53:58;101010.88;;;8.14;100.00
69318;BME280;56457;52.190;4.440;2023-04-22T00:55:01;101018.72;;;8.15;100.00
69318;BME280;56457;52.190;4.440;2023-04-22T00:56:01;101019.56;;;8.16;100.00
69318;BME280;56457;52.190;4.440;2023-04-22T00:57:02;101014.34;;;8.16;100.00
69318;BME280;56457;52.190;4.440;2023-04-22T00:58:03;101012.63;;;8.15;100.00
69318;BME280;56457;52.190;4.440;2023-04-22T00:59:03;101013.47;;;8.14;100.00
69318;BME280;56457;52.190;4.440;2023-04-22T01:00:04;101012.59;;;8.10;100.00
69318;BME280;56457;52.190;4.440;2023-04-22T01:01:05;101016.03;;;8.06;100.00
69318;BME280;56457;52.190;4.440;2023-04-22T01:02:05;101015.16;;;8.05;100.00
69318;BME280;56457;52.190;4.440;2023-04-22T01:03:06;101012.53;;;8.04;100.00
69318;BME280;56457;52.190;4.440;2023-04-22T01:04:06;101012.53;;;8.02;100.00
69318;BME280;56457;52.190;4.440;2023-04-22T01:05:07;101017.75;;;8.01;100.00
69318;BME280;56457;52.190;4.440;2023-04-22T01:06:10;101009.03;;;7.99;100.00
69318;BME280;56457;52.190;4.440;2023-04-22T01:07:11;101013.38;;;7.95;100.00
69318;BME280;56457;52.190;4.440;2023-04-22T01:08:11;101015.13;;;7.96;100.00
69318;BME280;56457;52.190;4.440;2023-04-22T01:09:12;101016.00;;;7.95;100.00
69318;BME280;56457;52.190;4.440;2023-04-22T01:10:12;101016.88;;;7.97;100.00
69318;BME280;56457;52.190;4.440;2023-04-22T01:11:12;101018.63;;;7.95;100.00
69318;BME280;56457;52.190;4.440;2023-04-22T01:12:13;101016.88;;;7.99;100.00
69318;BME280;56457;52.190;4.440;2023-04-22T01:13:13;101022.97;;;8.01;100.00
69318;BME280;56457;52.190;4.440;2023-04-22T01:14:14;101016.03;;;8.04;100.00
69318;BME280;56457;52.190;4.440;2023-04-22T01:15:14;101013.44;;;8.07;100.00
69318;BME280;56457;52.190;4.440;2023-04-22T01:16:15;101016.09;;;8.14;100.00
69318;BME280;56457;52.190;4.440;2023-04-22T01:17:15;101020.41;;;8.08;100.00
69318;BME280;56457;52.190;4.440;2023-04-22T01:18:15;101018.66;;;8.06;100.00
69318;BME280;56457;52.190;4.440;2023-04-22T01:19:16;101020.38;;;8.02;100.00
69318;BME280;56457;52.190;4.440;2023-04-22T01:20:16;101017.75;;;7.99;100.00
69318;BME280;56457;52.190;4.440;2023-04-22T01:21:18;101013.41;;;8.01;100.00
69318;BME280;56457;52.190;4.440;2023-04-22T01:22:18;101009.91;;;7.99;100.00
69318;BME280;56457;52.190;4.440;2023-04-22T01:23:20;101014.25;;;7.97;100.00
69318;BME280;56457;52.190;4.440;2023-04-22T01:24:20;101021.22;;;7.97;100.00
69318;BME280;56457;52.190;4.440;2023-04-22T01:25:21;101015.09;;;7.93;100.00
69318;BME280;56457;52.190;4.440;2023-04-22T01:26:21;101022.06;;;7.94;100.00
69318;BME280;56457;52.190;4.440;2023-04-22T01:27:21;101015.13;;;7.96;100.00
69318;BME280;56457;52.190;4.440;2023-04-22T01:28:22;101016.84;;;7.94;100.00
69318;BME280;56457;52.190;4.440;2023-04-22T01:29:23;101020.31;;;7.90;100.00
69318;BME280;56457;52.190;4.440;2023-04-22T01:30:23;101016.78;;;7.87;100.00
69318;BME280;56457;52.190;4.440;2023-04-22T01:31:23;101010.69;;;7.85;100.00
69318;BME280;56457;52.190;4.440;2023-04-22T01:32:24;101011.56;;;7.85;100.00
69318;BME280;56457;52.190;4.440;2023-04-22T01:33:24;101012.44;;;7.87;100.00
69318;BME280;56457;52.190;4.440;2023-04-22T01:34:24;101014.19;;;7.87;100.00
69318;BME280;56457;52.190;4.440;2023-04-22T01:35:25;101006.34;;;7.85;100.00
69318;BME280;56457;52.190;4.440;2023-04-22T01:36:26;101010.69;;;7.83;100.00
69318;BME280;56457;52.190;4.440;2023-04-22T01:37:27;101007.19;;;7.76;100.00
69318;BME280;56457;52.190;4.440;2023-04-22T01:38:27;101011.50;;;7.73;100.00
69318;BME280;56457;52.190;4.440;2023-04-22T01:39:28;101011.47;;;7.70;100.00
69318;BME280;56457;52.190;4.440;2023-04-22T01:40:29;101008.88;;;7.73;100.00
69318;BME280;56457;52.190;4.440;2023-04-22T01:41:30;101008.00;;;7.74;100.00
69318;BME280;56457;52.190;4.440;2023-04-22T01:42:30;101004.53;;;7.73;100.00
69318;BME280;56457;52.190;4.440;2023-04-22T01:43:31;101015.84;;;7.74;100.00
69318;BME280;56457;52.190;4.440;2023-04-22T01:44:31;101013.22;;;7.72;100.00
69318;BME280;56457;52.190;4.440;2023-04-22T01:45:32;101009.72;;;7.69;100.00
69318;BME280;56457;52.190;4.440;2023-04-22T01:46:32;101003.56;;;7.61;100.00
69318;BME280;56457;52.190;4.440;2023-04-22T01:47:32;101012.28;;;7.61;100.00
69318;BME280;56457;52.190;4.440;2023-04-22T01:48:33;101006.19;;;7.61;100.00
69318;BME280;56457;52.190;4.440;2023-04-22T01:49:33;101006.16;;;7.57;100.00
69318;BME280;56457;52.190;4.440;2023-04-22T01:50:34;101012.28;;;7.58;100.00
69318;BME280;56457;52.190;4.440;2023-04-22T01:51:34;101003.53;;;7.57;100.00
69318;BME280;56457;52.190;4.440;2023-04-22T01:52:35;101000.06;;;7.57;100.00
69318;BME280;56457;52.190;4.440;2023-04-22T01:53:35;101000.09;;;7.60;100.00
69318;BME280;56457;52.190;4.440;2023-04-22T01:54:35;100996.59;;;7.58;100.00
69318;BME280;56457;52.190;4.440;2023-04-22T01:55:37;101001.84;;;7.58;100.00
69318;BME280;56457;52.190;4.440;2023-04-22T01:56:37;101006.19;;;7.59;100.00
69318;BME280;56457;52.190;4.440;2023-04-22T01:57:42;101002.75;;;7.65;100.00
69318;BME280;56457;52.190;4.440;2023-04-22T01:58:43;101000.97;;;7.64;100.00
69318;BME280;56457;52.190;4.440;2023-04-22T01:59:43;101006.22;;;7.67;100.00
69318;BME280;56457;52.190;4.440;2023-04-22T02:00:43;101001.00;;;7.65;100.00
69318;BME280;56457;52.190;4.440;2023-04-22T02:01:44;101001.91;;;7.70;100.00
69318;BME280;56457;52.190;4.440;2023-04-22T02:02:44;100996.69;;;7.73;100.00
69318;BME280;56457;52.190;4.440;2023-04-22T02:03:44;100997.59;;;7.77;100.00
69318;BME280;56457;52.190;4.440;2023-04-22T02:04:44;101000.22;;;7.78;100.00
69318;BME280;56457;52.190;4.440;2023-04-22T02:05:45;100999.38;;;7.82;100.00
69318;BME280;56457;52.190;4.440;2023-04-22T02:06:45;101001.13;;;7.83;100.00
69318;BME280;56457;52.190;4.440;2023-04-22T02:07:45;100998.50;;;7.88;100.00
69318;BME280;56457;52.190;4.440;2023-04-22T02:08:46;101007.22;;;7.89;100.00
69318;BME280;56457;52.190;4.440;2023-04-22T02:09:46;100999.38;;;7.87;100.00
69318;BME280;56457;52.190;4.440;2023-04-22T02:10:46;100994.16;;;7.87;100.00
69318;BME280;56457;52.190;4.440;2023-04-22T02:11:47;100995.91;;;7.85;100.00
69318;BME280;56457;52.190;4.440;2023-04-22T02:12:47;100997.63;;;7.86;100.00
69318;BME280;56457;52.190;4.440;2023-04-22T02:13:47;101001.13;;;7.85;100.00
69318;BME280;56457;52.190;4.440;2023-04-22T02:14:48;100989.81;;;7.83;100.00
69318;BME280;56457;52.190;4.440;2023-04-22T02:15:49;100991.53;;;7.82;100.00
69318;BME280;56457;52.190;4.440;2023-04-22T02:16:49;100997.59;;;7.81;100.00
69318;BME280;56457;52.190;4.440;2023-04-22T02:17:50;100989.78;;;7.80;100.00
69318;BME280;56457;52.190;4.440;2023-04-22T02:18:52;100989.72;;;7.75;100.00
69318;BME280;56457;52.190;4.440;2023-04-22T02:19:52;100989.72;;;7.72;100.00
69318;BME280;56457;52.190;4.440;2023-04-22T02:20:52;100987.94;;;7.67;100.00
69318;BME280;56457;52.190;4.440;2023-04-22T02:21:53;100992.31;;;7.65;100.00
69318;BME280;56457;52.190;4.440;2023-04-22T02:22:53;100988.78;;;7.61;100.00
69318;BME280;56457;52.190;4.440;2023-04-22T02:23:53;100994.84;;;7.57;100.00
69318;BME280;56457;52.190;4.440;2023-04-22T02:24:54;100994.78;;;7.49;100.00
69318;BME280;56457;52.190;4.440;2023-04-22T02:25:55;100994.78;;;7.46;100.00
69318;BME280;56457;52.190;4.440;2023-04-22T02:26:55;100998.25;;;7.47;100.00
69318;BME280;56457;52.190;4.440;2023-04-22T02:27:55;100993.88;;;7.44;100.00
69318;BME280;56457;52.190;4.440;2023-04-22T02:28:56;100995.59;;;7.42;100.00
69318;BME280;56457;52.190;4.440;2023-04-22T02:29:56;100996.47;;;7.41;100.00
69318;BME280;56457;52.190;4.440;2023-04-22T02:30:56;101000.81;;;7.42;100.00
69318;BME280;56457;52.190;4.440;2023-04-22T02:31:58;100997.31;;;7.39;100.00
69318;BME280;56457;52.190;4.440;2023-04-22T02:32:58;100993.00;;;7.39;100.00
69318;BME280;56457;52.190;4.440;2023-04-22T02:34:00;101008.63;;;7.38;100.00
69318;BME280;56457;52.190;4.440;2023-04-22T02:35:00;101009.47;;;7.37;100.00
69318;BME280;56457;52.190;4.440;2023-04-22T02:36:01;101006.00;;;7.35;100.00
69318;BME280;56457;52.190;4.440;2023-04-22T02:37:01;101005.13;;;7.36;100.00
69318;BME280;56457;52.190;4.440;2023-04-22T02:38:01;101009.47;;;7.34;100.00
69318;BME280;56457;52.190;4.440;2023-04-22T02:39:02;101004.25;;;7.34;100.00
69318;BME280;56457;52.190;4.440;2023-04-22T02:40:05;101002.53;;;7.34;100.00
69318;BME280;56457;52.190;4.440;2023-04-22T02:41:06;100998.16;;;7.36;100.00
69318;BME280;56457;52.190;4.440;2023-04-22T02:42:06;101006.00;;;7.36;100.00
69318;BME280;56457;52.190;4.440;2023-04-22T02:43:07;101008.66;;;7.39;100.00
69318;BME280;56457;52.190;4.440;2023-04-22T02:44:07;100995.59;;;7.39;100.00
69318;BME280;56457;52.190;4.440;2023-04-22T02:45:08;100994.75;;;7.45;100.00
69318;BME280;56457;52.190;4.440;2023-04-22T02:46:08;100997.38;;;7.46;100.00
69318;BME280;56457;52.190;4.440;2023-04-22T02:47:11;100997.38;;;7.46;100.00
69318;BME280;56457;52.190;4.440;2023-04-22T02:48:12;100997.38;;;7.46;100.00
69318;BME280;56457;52.190;4.440;2023-04-22T02:49:12;100995.66;;;7.45;100.00
69318;BME280;56457;52.190;4.440;2023-04-22T02:50:12;100993.91;;;7.46;100.00
69318;BME280;56457;52.190;4.440;2023-04-22T02:51:13;100991.31;;;7.47;100.00
69318;BME280;56457;52.190;4.440;2023-04-22T02:52:13;100994.78;;;7.51;100.00
69318;BME280;56457;52.190;4.440;2023-04-22T02:53:13;100992.22;;;7.52;100.00
69318;BME280;56457;52.190;4.440;2023-04-22T02:54:14;100989.56;;;7.51;100.00
69318;BME280;56457;52.190;4.440;2023-04-22T02:55:14;100992.19;;;7.51;100.00
69318;BME280;56457;52.190;4.440;2023-04-22T02:56:14;100985.22;;;7.50;100.00
69318;BME280;56457;52.190;4.440;2023-04-22T02:57:15;100983.47;;;7.50;100.00
69318;BME280;56457;52.190;4.440;2023-04-22T02:58:15;100980.00;;;7.51;100.00
69318;BME280;56457;52.190;4.440;2023-04-22T02:59:15;100980.91;;;7.55;100.00
69318;BME280;56457;52.190;4.440;2023-04-22T03:00:16;100979.16;;;7.52;100.00
69318;BME280;56457;52.190;4.440;2023-04-22T03:01:16;100986.09;;;7.49;100.00
69318;BME280;56457;52.190;4.440;2023-04-22T03:02:16;100982.59;;;7.47;100.00
69318;BME280;56457;52.190;4.440;2023-04-22T03:03:17;100976.47;;;7.43;100.00
69318;BME280;56457;52.190;4.440;2023-04-22T03:04:17;100972.97;;;7.41;100.00
69318;BME280;56457;52.190;4.440;2023-04-22T03:05:20;100974.72;;;7.41;100.00
69318;BME280;56457;52.190;4.440;2023-04-22T03:06:21;100966.88;;;7.39;100.00
69318;BME280;56457;52.190;4.440;2023-04-22T03:07:21;100966.84;;;7.38;100.00
69318;BME280;56457;52.190;4.440;2023-04-22T03:08:22;100969.47;;;7.36;100.00
69318;BME280;56457;52.190;4.440;2023-04-22T03:09:22;100959.00;;;7.33;100.00
69318;BME280;56457;52.190;4.440;2023-04-22T03:10:22;100962.41;;;7.26;100.00
69318;BME280;56457;52.190;4.440;2023-04-22T03:11:22;100973.72;;;7.22;100.00
69318;BME280;56457;52.190;4.440;2023-04-22T03:12:23;100969.31;;;7.16;100.00
69318;BME280;56457;52.190;4.440;2023-04-22T03:13:23;100971.91;;;7.15;100.00
69318;BME280;56457;52.190;4.440;2023-04-22T03:14:24;100975.38;;;7.14;100.00
69318;BME280;56457;52.190;4.440;2023-04-22T03:15:24;100975.38;;;7.14;100.00
69318;BME280;56457;52.190;4.440;2023-04-22T03:16:24;100976.22;;;7.13;100.00
69318;BME280;56457;52.190;4.440;2023-04-22T03:17:25;100977.09;;;7.12;100.00
69318;BME280;56457;52.190;4.440;2023-04-22T03:18:25;100976.22;;;7.11;100.00
69318;BME280;56457;52.190;4.440;2023-04-22T03:19:25;100972.78;;;7.17;100.00
69318;BME280;56457;52.190;4.440;2023-04-22T03:20:25;100976.28;;;7.17;100.00
69318;BME280;56457;52.190;4.440;2023-04-22T03:21:26;100972.75;;;7.14;100.00
69318;BME280;56457;52.190;4.440;2023-04-22T03:22:27;100969.25;;;7.12;100.00
69318;BME280;56457;52.190;4.440;2023-04-22T03:23:27;100973.63;;;7.13;100.00
69318;BME280;56457;52.190;4.440;2023-04-22T03:24:28;100971.88;;;7.13;100.00
69318;BME280;56457;52.190;4.440;2023-04-22T03:25:28;100964.97;;;7.15;100.00
69318;BME280;56457;52.190;4.440;2023-04-22T03:26:28;100960.59;;;7.14;100.00
69318;BME280;56457;52.190;4.440;2023-04-22T03:27:28;100959.69;;;7.12;100.00
69318;BME280;56457;52.190;4.440;2023-04-22T03:28:29;100960.56;;;7.11;100.00
69318;BME280;56457;52.190;4.440;2023-04-22T03:29:29;100959.72;;;7.14;100.00
69318;BME280;56457;52.190;4.440;2023-04-22T03:30:29;100961.47;;;7.15;100.00
69318;BME280;56457;52.190;4.440;2023-04-22T03:31:30;100964.91;;;7.12;100.00
69318;BME280;56457;52.190;4.440;2023-04-22T03:32:30;100961.47;;;7.15;100.00
69318;BME280;56457;52.190;4.440;2023-04-22T03:33:30;100950.19;;;7.14;100.00
69318;BME280;56457;52.190;4.440;2023-04-22T03:34:30;100951.91;;;7.15;100.00
69318;BME280;56457;52.190;4.440;2023-04-22T03:35:31;100952.78;;;7.14;100.00
69318;BME280;56457;52.190;4.440;2023-04-22T03:36:31;100956.28;;;7.16;100.00
69318;BME280;56457;52.190;4.440;2023-04-22T03:37:31;100952.78;;;7.14;100.00
69318;BME280;56457;52.190;4.440;2023-04-22T03:38:32;100953.66;;;7.18;100.00
69318;BME280;56457;52.190;4.440;2023-04-22T03:39:32;100952.78;;;7.19;100.00
69318;BME280;56457;52.190;4.440;2023-04-22T03:40:32;100958.00;;;7.17;100.00
69318;BME280;56457;52.190;4.440;2023-04-22T03:41:32;100952.78;;;7.20;100.00
69318;BME280;56457;52.190;4.440;2023-04-22T03:42:33;100955.44;;;7.23;100.00
69318;BME280;56457;52.190;4.440;2023-04-22T03:43:33;100956.31;;;7.21;100.00
69318;BME280;56457;52.190;4.440;2023-04-22T03:44:33;100949.34;;;7.23;100.00
69318;BME280;56457;52.190;4.440;2023-04-22T03:45:33;100947.63;;;7.25;100.00
69318;BME280;56457;52.190;4.440;2023-04-22T03:46:34;100951.16;;;7.28;100.00
69318;BME280;56457;52.190;4.440;2023-04-22T03:47:34;100948.53;;;7.28;100.00
69318;BME280;56457;52.190;4.440;2023-04-22T03:48:34;100948.53;;;7.27;100.00
69318;BME280;56457;52.190;4.440;2023-04-22T03:49:35;100945.00;;;7.25;100.00
69318;BME280;56457;52.190;4.440;2023-04-22T03:50:35;100945.06;;;7.28;100.00
69318;BME280;56457;52.190;4.440;2023-04-22T03:51:35;100943.34;;;7.33;100.00
69318;BME280;56457;52.190;4.440;2023-04-22T03:52:36;100939.00;;;7.35;100.00
69318;BME280;56457;52.190;4.440;2023-04-22T03:53:36;100942.53;;;7.40;100.00
69318;BME280;56457;52.190;4.440;2023-04-22T03:54:36;100935.56;;;7.41;100.00
69318;BME280;56457;52.190;4.440;2023-04-22T03:55:37;100941.66;;;7.40;100.00
69318;BME280;56457;52.190;4.440;2023-04-22T03:56:37;100932.97;;;7.41;100.00
69318;BME280;56457;52.190;4.440;2023-04-22T03:57:37;100935.56;;;7.42;100.00
69318;BME280;56457;52.190;4.440;2023-04-22T03:58:37;100929.47;;;7.43;100.00
69318;BME280;56457;52.190;4.440;2023-04-22T03:59:38;100935.56;;;7.44;100.00
69318;BME280;56457;52.190;4.440;2023-04-22T04:00:38;100939.94;;;7.43;100.00
69318;BME280;56457;52.190;4.440;2023-04-22T04:01:38;100935.56;;;7.41;100.00
69318;BME280;56457;52.190;4.440;2023-04-22T04:02:39;100929.44;;;7.39;100.00
69318;BME280;56457;52.190;4.440;2023-04-22T04:03:39;100928.56;;;7.37;100.00
69318;BME280;56457;52.190;4.440;2023-04-22T04:04:39;100931.19;;;7.34;100.00
69318;BME280;56457;52.190;4.440;2023-04-22T04:05:40;100931.13;;;7.32;100.00
69318;BME280;56457;52.190;4.440;2023-04-22T04:06:40;100927.69;;;7.33;100.00
69318;BME280;56457;52.190;4.440;2023-04-22T04:07:40;100927.75;;;7.39;100.00
69318;BME280;56457;52.190;4.440;2023-04-22T04:08:41;100929.47;;;7.40;100.00
69318;BME280;56457;52.190;4.440;2023-04-22T04:09:41;100934.69;;;7.40;100.00
69318;BME280;56457;52.190;4.440;2023-04-22T04:10:42;100928.63;;;7.41;100.00
69318;BME280;56457;52.190;4.440;2023-04-22T04:11:42;100931.22;;;7.41;100.00
69318;BME280;56457;52.190;4.440;2023-04-22T04:12:42;100930.34;;;7.42;100.00
69318;BME280;56457;52.190;4.440;2023-04-22T04:13:43;100926.88;;;7.45;100.00
69318;BME280;56457;52.190;4.440;2023-04-22T04:14:43;100926.91;;;7.49;100.00
69318;BME280;56457;52.190;4.440;2023-04-22T04:15:43;100924.31;;;7.51;100.00
69318;BME280;56457;52.190;4.440;2023-04-22T04:16:44;100929.53;;;7.49;100.00
69318;BME280;56457;52.190;4.440;2023-04-22T04:17:44;100923.44;;;7.50;100.00
69318;BME280;56457;52.190;4.440;2023-04-22T04:18:45;100915.63;;;7.52;100.00
69318;BME280;56457;52.190;4.440;2023-04-22T04:19:48;100923.47;;;7.53;100.00
69318;BME280;56457;52.190;4.440;2023-04-22T04:20:48;100925.22;;;7.56;100.00
69318;BME280;56457;52.190;4.440;2023-04-22T04:21:49;100921.72;;;7.57;100.00
69318;BME280;56457;52.190;4.440;2023-04-22T04:22:50;100926.13;;;7.60;100.00
69318;BME280;56457;52.190;4.440;2023-04-22T04:23:50;100918.28;;;7.61;100.00
69318;BME280;56457;52.190;4.440;2023-04-22T04:24:51;100914.81;;;7.64;100.00
69318;BME280;56457;52.190;4.440;2023-04-22T04:25:54;100917.41;;;7.64;100.00
69318;BME280;56457;52.190;4.440;2023-04-22T04:26:55;100922.63;;;7.64;100.00
69318;BME280;56457;52.190;4.440;2023-04-22T04:27:57;100914.81;;;7.62;100.00
69318;BME280;56457;52.190;4.440;2023-04-22T04:28:57;100914.81;;;7.61;100.00
69318;BME280;56457;52.190;4.440;2023-04-22T04:29:57;100912.19;;;7.62;100.00
69318;BME280;56457;52.190;4.440;2023-04-22T04:30:58;100913.09;;;7.64;100.00
69318;BME280;56457;52.190;4.440;2023-04-22T04:31:59;100913.09;;;7.67;100.00
69318;BME280;56457;52.190;4.440;2023-04-22T04:32:59;100903.50;;;7.68;100.00
69318;BME280;56457;52.190;4.440;2023-04-22T04:34:06;100907.00;;;7.70;100.00
69318;BME280;56457;52.190;4.440;2023-04-22T04:35:06;100906.16;;;7.72;100.00
69318;BME280;56457;52.190;4.440;2023-04-22T04:36:07;100908.81;;;7.77;100.00
69318;BME280;56457;52.190;4.440;2023-04-22T04:37:09;100909.66;;;7.79;100.00
69318;BME280;56457;52.190;4.440;2023-04-22T04:38:10;100907.97;;;7.82;100.00
69318;BME280;56457;52.190;4.440;2023-04-22T04:39:11;100907.97;;;7.86;100.00
69318;BME280;56457;52.190;4.440;2023-04-22T04:40:12;100906.22;;;7.83;100.00
69318;BME280;56457;52.190;4.440;2023-04-22T04:41:12;100908.81;;;7.86;100.00
69318;BME280;56457;52.190;4.440;2023-04-22T04:42:13;100910.56;;;7.89;100.00
69318;BME280;56457;52.190;4.440;2023-04-22T04:43:14;100908.84;;;7.89;100.00
69318;BME280;56457;52.190;4.440;2023-04-22T04:44:14;100903.63;;;7.89;100.00
69318;BME280;56457;52.190;4.440;2023-04-22T04:45:15;100908.81;;;7.86;100.00
69318;BME280;56457;52.190;4.440;2023-04-22T04:46:16;100907.09;;;7.85;100.00
69318;BME280;56457;52.190;4.440;2023-04-22T04:47:17;100911.44;;;7.86;100.00
69318;BME280;56457;52.190;4.440;2023-04-22T04:48:17;100906.22;;;7.85;100.00
69318;BME280;56457;52.190;4.440;2023-04-22T04:49:19;100908.00;;;7.90;100.00
69318;BME280;56457;52.190;4.440;2023-04-22T04:50:20;100907.97;;;7.92;100.00
69318;BME280;56457;52.190;4.440;2023-04-22T04:51:21;100906.25;;;7.91;100.00
69318;BME280;56457;52.190;4.440;2023-04-22T04:52:21;100909.72;;;7.94;100.00
69318;BME280;56457;52.190;4.440;2023-04-22T04:53:21;100905.41;;;7.96;100.00
69318;BME280;56457;52.190;4.440;2023-04-22T04:54:21;100905.41;;;7.96;100.00
69318;BME280;56457;52.190;4.440;2023-04-22T04:55:22;100911.50;;;7.95;100.00
69318;BME280;56457;52.190;4.440;2023-04-22T04:56:22;100910.63;;;7.96;100.00
69318;BME280;56457;52.190;4.440;2023-04-22T04:57:22;100906.28;;;7.97;100.00
69318;BME280;56457;52.190;4.440;2023-04-22T04:58:23;100910.63;;;7.98;100.00
69318;BME280;56457;52.190;4.440;2023-04-22T04:59:23;100912.34;;;7.99;100.00
69318;BME280;56457;52.190;4.440;2023-04-22T05:00:23;100906.25;;;8.00;100.00
69318;BME280;56457;52.190;4.440;2023-04-22T05:01:24;100906.28;;;8.01;100.00
69318;BME280;56457;52.190;4.440;2023-04-22T05:02:24;100908.03;;;8.04;100.00
69318;BME280;56457;52.190;4.440;2023-04-22T05:03:24;100897.56;;;8.05;100.00
69318;BME280;56457;52.190;4.440;2023-04-22T05:04:25;100894.09;;;8.06;100.00
69318;BME280;56457;52.190;4.440;2023-04-22T05:05:25;100895.00;;;8.08;100.00
69318;BME280;56457;52.190;4.440;2023-04-22T05:06:25;100890.63;;;8.07;100.00
69318;BME280;56457;52.190;4.440;2023-04-22T05:07:26;100892.38;;;8.08;100.00
69318;BME280;56457;52.190;4.440;2023-04-22T05:08:26;100888.03;;;8.10;100.00
69318;BME280;56457;52.190;4.440;2023-04-22T05:09:26;100890.63;;;8.12;100.00
69318;BME280;56457;52.190;4.440;2023-04-22T05:10:27;100876.69;;;8.10;100.00
69318;BME280;56457;52.190;4.440;2023-04-22T05:11:27;100885.44;;;8.14;100.00
69318;BME280;56457;52.190;4.440;2023-04-22T05:12:27;100887.16;;;8.15;100.00
69318;BME280;56457;52.190;4.440;2023-04-22T05:13:28;100887.16;;;8.18;100.00
69318;BME280;56457;52.190;4.440;2023-04-22T05:14:29;100888.94;;;8.20;100.00
69318;BME280;56457;52.190;4.440;2023-04-22T05:15:29;100881.97;;;8.22;100.00
69318;BME280;56457;52.190;4.440;2023-04-22T05:16:29;100887.19;;;8.25;100.00